createdAt,value
2022-10-09T00:02:53.962Z,78.83
2022-10-09T00:05:55.954Z,80.34
2022-10-09T00:08:59.458Z,80.00
2022-10-09T00:12:02.076Z,79.43
2022-10-09T00:15:04.456Z,80.37
2022-10-09T00:18:08.101Z,80.33
2022-10-09T00:21:36.886Z,79.94
2022-10-09T00:24:39.253Z,80.29
2022-10-09T00:27:42.412Z,79.96
2022-10-09T00:30:44.998Z,79.75
2022-10-09T00:33:47.402Z,80.10
2022-10-09T00:36:49.648Z,80.42
2022-10-09T00:39:52.541Z,79.15
2022-10-09T00:42:59.311Z,79.55
2022-10-09T00:46:06.657Z,79.29
2022-10-09T00:49:18.275Z,79.75
2022-10-09T00:52:29.151Z,79.27
2022-10-09T00:55:35.082Z,79.08
2022-10-09T00:58:37.992Z,78.74
2022-10-09T01:01:42.821Z,80.51
2022-10-09T01:04:47.027Z,80.84
2022-10-09T01:08:06.536Z,80.65
2022-10-09T01:11:22.293Z,79.98
2022-10-09T01:14:32.783Z,80.50
2022-10-09T01:17:42.206Z,80.34
2022-10-09T01:21:10.921Z,80.36
2022-10-09T01:24:15.630Z,80.42
2022-10-09T01:27:24.548Z,81.06
2022-10-09T01:30:27.604Z,80.49
2022-10-09T01:33:40.184Z,79.87
2022-10-09T01:36:44.349Z,80.40
2022-10-09T01:40:15.806Z,80.52
2022-10-09T01:43:17.885Z,80.19
2022-10-09T01:46:29.373Z,79.66
2022-10-09T01:49:43.337Z,79.34
2022-10-09T01:53:01.804Z,79.52
2022-10-09T01:56:19.229Z,79.23
2022-10-09T01:59:24.545Z,81.41
2022-10-09T02:02:28.085Z,81.09
2022-10-09T02:05:32.823Z,80.63
2022-10-09T02:08:40.511Z,80.71
2022-10-09T02:11:50.161Z,80.87
2022-10-09T02:14:52.208Z,80.64
2022-10-09T02:18:02.875Z,81.38
2022-10-09T02:21:21.191Z,80.70
2022-10-09T02:24:24.193Z,81.12
2022-10-09T02:27:27.830Z,80.97
2022-10-09T02:30:39.457Z,81.18
2022-10-09T02:33:42.572Z,81.11
2022-10-09T02:36:44.571Z,80.62
2022-10-09T02:39:47.222Z,80.68
2022-10-09T02:42:49.933Z,80.10
2022-10-09T02:45:52.305Z,80.18
2022-10-09T02:48:54.374Z,80.45
2022-10-09T02:51:56.415Z,81.10
2022-10-09T02:54:58.456Z,80.82
2022-10-09T02:58:00.583Z,82.09
2022-10-09T03:01:05.130Z,82.17
2022-10-09T03:04:07.167Z,83.53
2022-10-09T03:07:09.384Z,86.28
2022-10-09T03:10:11.311Z,85.71
2022-10-09T03:13:13.425Z,87.41
2022-10-09T03:16:18.670Z,90.38
2022-10-09T03:19:20.744Z,93.79
2022-10-09T03:22:23.233Z,100.00
2022-10-09T03:25:25.364Z,74.72
2022-10-09T03:28:28.028Z,64.96
2022-10-09T03:34:52.206Z,74.00
2022-10-09T03:37:54.238Z,79.83
2022-10-09T03:40:58.854Z,86.33
2022-10-09T03:44:01.062Z,89.38
2022-10-09T03:47:03.167Z,92.58
2022-10-09T03:50:07.042Z,93.06
2022-10-09T03:53:11.539Z,94.13
2022-10-09T03:56:13.743Z,94.63
2022-10-09T03:59:15.781Z,93.85
2022-10-09T04:02:17.788Z,94.69
2022-10-09T04:05:20.465Z,95.06
2022-10-09T04:08:22.457Z,94.75
2022-10-09T04:11:24.529Z,95.08
2022-10-09T04:14:26.539Z,94.41
2022-10-09T04:17:29.088Z,93.61
2022-10-09T04:20:31.617Z,93.67
2022-10-09T04:23:35.088Z,96.82
2022-10-09T04:26:37.221Z,99.30
2022-10-09T04:29:42.046Z,97.01
2022-10-09T04:32:44.126Z,95.08
2022-10-09T04:35:49.600Z,94.75
2022-10-09T04:38:52.847Z,93.91
2022-10-09T04:41:54.926Z,93.53
2022-10-09T04:44:56.988Z,94.12
2022-10-09T04:47:59.440Z,93.80
2022-10-09T04:51:04.946Z,94.99
2022-10-09T04:54:08.637Z,90.64
2022-10-09T04:57:12.743Z,90.59
2022-10-09T05:00:15.447Z,91.84
2022-10-09T05:03:18.775Z,91.40
2022-10-09T05:06:23.075Z,91.08
2022-10-09T05:09:25.476Z,91.24
2022-10-09T05:12:29.588Z,91.54
2022-10-09T05:15:32.392Z,90.89
2022-10-09T05:18:45.158Z,90.83
2022-10-09T05:21:48.184Z,90.46
2022-10-09T05:24:50.250Z,89.85
2022-10-09T05:27:52.379Z,89.02
2022-10-09T05:30:59.347Z,89.39
2022-10-09T05:34:02.290Z,87.92
2022-10-09T05:37:04.332Z,87.34
2022-10-09T05:40:07.102Z,87.32
2022-10-09T05:43:09.213Z,87.24
2022-10-09T05:46:15.650Z,86.90
2022-10-09T05:49:17.872Z,85.73
2022-10-09T05:52:20.615Z,85.96
2022-10-09T05:55:22.585Z,85.21
2022-10-09T05:58:25.811Z,85.19
2022-10-09T06:01:32.932Z,84.61
2022-10-09T06:04:35.057Z,83.61
2022-10-09T06:07:38.249Z,83.76
2022-10-09T06:10:40.407Z,82.27
2022-10-09T06:13:43.872Z,82.20
2022-10-09T06:16:46.347Z,82.46
2022-10-09T06:19:48.647Z,81.08
2022-10-09T06:22:51.844Z,81.68
2022-10-09T06:25:59.601Z,80.83
2022-10-09T06:29:02.863Z,80.87
2022-10-09T06:32:04.960Z,81.71
2022-10-09T06:35:07.804Z,81.32
2022-10-09T06:38:10.783Z,79.95
2022-10-09T06:41:24.465Z,79.65
2022-10-09T06:44:26.901Z,79.90
2022-10-09T06:47:31.723Z,79.28
2022-10-09T06:50:37.367Z,79.34
2022-10-09T06:53:43.270Z,78.92
2022-10-09T06:56:45.452Z,79.26
2022-10-09T06:59:50.291Z,78.15
2022-10-09T07:02:53.014Z,78.32
2022-10-09T07:06:05.105Z,77.44
2022-10-09T07:09:10.266Z,78.52
2022-10-09T07:12:13.157Z,77.66
2022-10-09T07:15:15.430Z,77.83
2022-10-09T07:18:17.741Z,75.98
2022-10-09T07:21:20.162Z,76.28
2022-10-09T07:24:25.247Z,75.52
2022-10-09T07:27:28.565Z,75.05
2022-10-09T07:30:30.960Z,75.75
2022-10-09T07:33:33.467Z,75.42
2022-10-09T07:36:36.026Z,75.14
2022-10-09T07:39:40.578Z,74.60
2022-10-09T07:42:44.971Z,75.39
2022-10-09T07:45:48.737Z,74.63
2022-10-09T07:48:51.642Z,74.80
2022-10-09T07:51:55.857Z,74.62
2022-10-09T07:54:58.116Z,74.76
2022-10-09T07:58:00.298Z,74.06
2022-10-09T08:01:08.629Z,74.06
2022-10-09T08:04:11.047Z,73.67
2022-10-09T08:07:14.744Z,73.80
2022-10-09T08:10:18.268Z,73.23
2022-10-09T08:13:21.623Z,73.04
2022-10-09T08:16:25.605Z,72.76
2022-10-09T08:19:27.704Z,72.55
2022-10-09T08:22:32.745Z,72.56
2022-10-09T08:25:37.063Z,73.01
2022-10-09T08:28:39.189Z,72.94
2022-10-09T08:31:41.347Z,72.30
2022-10-09T08:34:43.561Z,72.34
2022-10-09T08:37:46.869Z,72.27
2022-10-09T08:41:00.954Z,71.95
2022-10-09T08:44:20.946Z,72.19
2022-10-09T08:47:41.279Z,72.18
2022-10-09T08:50:49.429Z,71.50
2022-10-09T08:53:58.968Z,71.96
2022-10-09T08:57:04.407Z,71.26
2022-10-09T09:00:18.136Z,70.93
2022-10-09T09:03:45.374Z,71.07
2022-10-09T09:07:06.220Z,70.48
2022-10-09T09:10:24.397Z,70.44
2022-10-09T09:13:38.671Z,70.19
2022-10-09T09:17:11.488Z,69.89
2022-10-09T09:20:30.275Z,69.49
2022-10-09T09:23:40.908Z,69.66
2022-10-09T09:26:45.662Z,69.68
2022-10-09T09:30:19.870Z,69.56
2022-10-09T09:33:50.516Z,69.31
2022-10-09T09:36:57.598Z,69.03
2022-10-09T09:43:24.163Z,68.64
2022-10-09T09:46:31.155Z,68.46
2022-10-09T09:49:34.207Z,68.02
2022-10-09T09:52:40.748Z,68.01
2022-10-09T09:55:43.043Z,67.84
2022-10-09T09:58:48.440Z,67.44
2022-10-09T10:02:00.589Z,67.74
2022-10-09T10:05:15.907Z,67.78
2022-10-09T10:08:34.753Z,67.72
2022-10-09T10:11:37.565Z,67.03
2022-10-09T10:14:51.028Z,67.38
2022-10-09T10:18:10.880Z,67.45
2022-10-09T10:21:17.172Z,67.29
2022-10-09T10:24:28.066Z,67.38
2022-10-09T10:27:40.808Z,67.06
2022-10-09T10:30:44.004Z,67.59
2022-10-09T10:33:54.262Z,67.09
2022-10-09T10:37:15.712Z,67.37
2022-10-09T10:40:31.180Z,66.93
2022-10-09T10:43:51.667Z,66.78
2022-10-09T10:47:02.048Z,66.98
2022-10-09T10:50:05.207Z,66.24
2022-10-09T10:53:29.428Z,66.45
2022-10-09T10:56:38.230Z,66.01
2022-10-09T11:00:04.237Z,66.61
2022-10-09T11:03:34.624Z,66.17
2022-10-09T11:07:00.701Z,66.50
2022-10-09T11:10:54.899Z,66.50
2022-10-09T11:14:21.967Z,66.15
2022-10-09T11:17:55.891Z,66.35
2022-10-09T11:21:13.595Z,66.34
2022-10-09T11:24:44.504Z,66.59
2022-10-09T11:27:54.939Z,66.53
2022-10-09T11:34:37.758Z,66.45
2022-10-09T11:37:42.329Z,66.10
2022-10-09T11:40:44.497Z,66.10
2022-10-09T11:44:02.617Z,65.39
2022-10-09T11:47:16.854Z,64.95
2022-10-09T11:50:42.978Z,64.81
2022-10-09T11:53:46.448Z,65.50
2022-10-09T11:57:06.121Z,65.16
2022-10-09T12:00:10.604Z,65.58
2022-10-09T12:03:33.779Z,66.17
2022-10-09T12:06:47.958Z,65.37
2022-10-09T12:09:59.843Z,65.54
2022-10-09T12:13:08.447Z,66.48
2022-10-09T12:16:50.337Z,65.83
2022-10-09T12:20:00.082Z,65.55
2022-10-09T12:23:27.070Z,66.05
2022-10-09T12:26:31.345Z,66.11
2022-10-09T12:29:44.699Z,65.73
2022-10-09T12:32:54.489Z,65.28
2022-10-09T12:36:03.939Z,65.63
2022-10-09T12:39:23.404Z,64.97
2022-10-09T12:42:25.582Z,65.00
2022-10-09T12:45:30.691Z,65.13
2022-10-09T12:48:39.017Z,65.42
2022-10-09T12:51:41.066Z,64.37
2022-10-09T12:54:45.178Z,65.83
2022-10-09T12:57:47.590Z,65.57
2022-10-09T13:00:53.739Z,65.03
2022-10-09T13:04:04.735Z,65.77
2022-10-09T13:07:18.783Z,65.96
2022-10-09T13:10:23.503Z,66.65
2022-10-09T13:13:28.367Z,66.95
2022-10-09T13:16:45.115Z,72.12
2022-10-09T13:19:54.962Z,79.44
2022-10-09T13:23:02.781Z,86.67
2022-10-09T13:26:07.706Z,89.99
2022-10-09T13:29:14.383Z,93.32
2022-10-09T13:32:18.465Z,96.84
2022-10-09T13:35:26.567Z,99.45
2022-10-09T13:38:34.610Z,99.92
2022-10-09T13:41:37.244Z,90.71
2022-10-09T13:44:39.698Z,82.83
2022-10-09T13:47:41.902Z,84.66
2022-10-09T13:50:44.747Z,85.03
2022-10-09T13:53:47.052Z,85.15
2022-10-09T13:56:55.555Z,82.50
2022-10-09T13:59:58.409Z,84.44
2022-10-09T14:03:01.733Z,84.41
2022-10-09T14:06:03.921Z,85.58
2022-10-09T14:09:06.752Z,83.26
2022-10-09T14:12:09.077Z,80.49
2022-10-09T14:15:11.298Z,80.21
2022-10-09T14:18:13.406Z,80.23
2022-10-09T14:21:15.942Z,79.60
2022-10-09T14:24:19.539Z,78.34
2022-10-09T14:27:21.654Z,79.42
2022-10-09T14:30:23.793Z,79.03
2022-10-09T14:33:26.570Z,79.28
2022-10-09T14:36:29.263Z,80.08
2022-10-09T14:39:31.369Z,78.40
2022-10-09T14:42:33.395Z,78.76
2022-10-09T14:45:35.435Z,78.89
2022-10-09T14:48:38.159Z,79.02
2022-10-09T14:51:41.340Z,77.80
2022-10-09T14:54:43.337Z,78.32
2022-10-09T14:57:45.457Z,78.90
2022-10-09T15:00:47.751Z,79.99
2022-10-09T15:03:50.111Z,79.60
2022-10-09T15:06:52.431Z,80.19
2022-10-09T15:09:58.106Z,80.14
2022-10-09T15:13:00.088Z,80.03
2022-10-09T15:16:04.886Z,79.89
2022-10-09T15:19:06.929Z,78.82
2022-10-09T15:22:09.030Z,79.33
2022-10-09T15:25:13.479Z,78.93
2022-10-09T15:28:17.234Z,79.88
2022-10-09T15:31:28.320Z,79.30
2022-10-09T15:34:31.026Z,79.03
2022-10-09T15:37:33.192Z,79.05
2022-10-09T15:40:47.189Z,78.44
2022-10-09T15:43:50.482Z,78.97
2022-10-09T15:46:52.784Z,78.67
2022-10-09T15:49:54.818Z,78.87
2022-10-09T15:52:57.047Z,79.07
2022-10-09T15:56:05.538Z,78.37
2022-10-09T15:59:10.792Z,78.69
2022-10-09T16:02:13.317Z,77.95
2022-10-09T16:05:15.472Z,78.06
2022-10-09T16:08:19.045Z,77.15
2022-10-09T16:11:24.963Z,76.44
2022-10-09T16:14:30.471Z,75.27
2022-10-09T16:17:32.563Z,75.73
2022-10-09T16:20:35.857Z,75.17
2022-10-09T16:23:38.000Z,73.86
2022-10-09T16:26:40.051Z,74.57
2022-10-09T16:29:42.228Z,75.20
2022-10-09T16:32:44.238Z,75.87
2022-10-09T16:35:46.719Z,75.93
2022-10-09T16:38:49.055Z,76.25
2022-10-09T16:41:50.974Z,75.87
2022-10-09T16:44:53.114Z,76.04
2022-10-09T16:48:00.135Z,75.89
2022-10-09T16:51:02.257Z,75.72
2022-10-09T16:54:05.761Z,76.46
2022-10-09T16:57:08.490Z,75.98
2022-10-09T17:00:11.101Z,75.59
2022-10-09T17:03:13.178Z,76.69
2022-10-09T17:06:19.845Z,75.78
2022-10-09T17:09:22.152Z,73.54
2022-10-09T17:12:24.821Z,73.26
2022-10-09T17:15:26.943Z,72.81
2022-10-09T17:18:30.082Z,71.85
2022-10-09T17:21:34.539Z,70.96
2022-10-09T17:24:37.283Z,71.06
2022-10-09T17:27:39.828Z,70.79
2022-10-09T17:30:41.953Z,70.12
2022-10-09T17:33:46.422Z,70.31
2022-10-09T17:36:48.521Z,71.08
2022-10-09T17:39:52.919Z,70.45
2022-10-09T17:42:55.036Z,71.36
2022-10-09T17:45:57.358Z,71.49
2022-10-09T17:49:02.904Z,71.45
2022-10-09T17:52:05.931Z,72.28
2022-10-09T17:55:08.655Z,70.91
2022-10-09T17:58:12.644Z,70.94
2022-10-09T18:01:16.083Z,71.18
2022-10-09T18:04:20.167Z,71.47
2022-10-09T18:07:22.775Z,71.99
2022-10-09T18:10:25.610Z,72.24
2022-10-09T18:13:28.365Z,71.97
2022-10-09T18:16:36.178Z,71.98
2022-10-09T18:19:38.613Z,72.04
2022-10-09T18:22:41.541Z,72.77
2022-10-09T18:25:44.828Z,72.80
2022-10-09T18:28:48.856Z,73.08
2022-10-09T18:31:55.848Z,72.81
2022-10-09T18:34:58.217Z,72.54
2022-10-09T18:38:00.383Z,72.93
2022-10-09T18:41:02.452Z,73.03
2022-10-09T18:44:05.630Z,73.39
2022-10-09T18:47:13.323Z,73.06
2022-10-09T18:50:17.263Z,73.89
2022-10-09T18:53:19.410Z,74.13
2022-10-09T18:56:22.989Z,73.39
2022-10-09T18:59:25.152Z,73.89
2022-10-09T19:02:32.187Z,73.81
2022-10-09T19:05:34.387Z,74.15
2022-10-09T19:08:38.607Z,74.40
2022-10-09T19:11:40.774Z,74.32
2022-10-09T19:14:43.841Z,74.51
2022-10-09T19:17:48.294Z,74.32
2022-10-09T19:20:50.672Z,74.74
2022-10-09T19:23:54.369Z,75.22
2022-10-09T19:27:01.188Z,75.31
2022-10-09T19:30:04.959Z,75.13
2022-10-09T19:33:07.006Z,75.06
2022-10-09T19:36:12.014Z,75.23
2022-10-09T19:39:14.628Z,74.90
2022-10-09T19:42:19.099Z,75.60
2022-10-09T19:45:21.538Z,75.83
2022-10-09T19:48:25.405Z,75.59
2022-10-09T19:51:28.753Z,75.48
2022-10-09T19:54:35.688Z,76.45
2022-10-09T19:57:37.795Z,76.27
2022-10-09T20:00:45.284Z,75.97
2022-10-09T20:03:48.948Z,76.59
2022-10-09T20:06:52.116Z,76.96
2022-10-09T20:09:54.193Z,76.82
2022-10-09T20:12:57.482Z,76.88
2022-10-09T20:16:01.136Z,77.31
2022-10-09T20:19:04.870Z,77.20
2022-10-09T20:22:07.907Z,77.12
2022-10-09T20:25:11.119Z,77.16
2022-10-09T20:28:14.753Z,77.11
2022-10-09T20:31:20.797Z,76.96
2022-10-09T20:34:25.123Z,76.57
2022-10-09T20:37:27.629Z,76.43
2022-10-09T20:40:29.662Z,76.94
2022-10-09T20:43:32.109Z,76.72
2022-10-09T20:46:36.595Z,77.03
2022-10-09T20:49:44.255Z,76.10
2022-10-09T20:52:47.992Z,76.33
2022-10-09T20:55:50.288Z,76.50
2022-10-09T20:58:53.030Z,76.69
2022-10-09T21:01:55.509Z,76.39
2022-10-09T21:04:59.975Z,76.75
2022-10-09T21:08:02.064Z,77.16
2022-10-09T21:11:07.095Z,76.32
2022-10-09T21:14:10.904Z,76.78
2022-10-09T21:17:13.165Z,76.50
2022-10-09T21:20:15.962Z,76.91
2022-10-09T21:23:18.924Z,77.21
2022-10-09T21:26:23.093Z,77.37
2022-10-09T21:29:27.250Z,77.32
2022-10-09T21:32:29.745Z,78.03
2022-10-09T21:35:38.559Z,77.68
2022-10-09T21:38:41.370Z,79.04
2022-10-09T21:41:43.997Z,77.83
2022-10-09T21:44:46.095Z,77.59
2022-10-09T21:47:49.073Z,77.70
2022-10-09T21:50:51.593Z,77.67
2022-10-09T21:53:55.843Z,76.85
2022-10-09T21:56:58.492Z,76.48
2022-10-09T22:00:00.767Z,76.59
2022-10-09T22:03:02.991Z,76.97
2022-10-09T22:06:17.744Z,76.61
2022-10-09T22:09:20.985Z,77.50
2022-10-09T22:12:23.276Z,79.40
2022-10-09T22:15:26.289Z,78.86
2022-10-09T22:18:28.633Z,79.54
2022-10-09T22:21:30.684Z,79.68
2022-10-09T22:24:32.848Z,79.58
2022-10-09T22:27:35.077Z,79.51
2022-10-09T22:30:37.964Z,80.07
2022-10-09T22:33:40.830Z,80.02
2022-10-09T22:36:44.065Z,79.61
2022-10-09T22:39:46.123Z,78.67
2022-10-09T22:42:49.342Z,78.34
2022-10-09T22:45:52.490Z,79.11
2022-10-09T22:48:54.726Z,78.91
2022-10-09T22:51:57.535Z,78.98
2022-10-09T22:55:00.799Z,79.69
2022-10-09T22:58:02.770Z,80.01
2022-10-09T23:01:08.266Z,79.50
2022-10-09T23:04:14.544Z,79.42
2022-10-09T23:07:16.615Z,79.99
2022-10-09T23:10:20.488Z,79.95
2022-10-09T23:13:22.551Z,79.90
2022-10-09T23:16:29.892Z,79.60
2022-10-09T23:19:31.999Z,79.57
2022-10-09T23:22:34.093Z,79.80
2022-10-09T23:25:40.487Z,79.97
2022-10-09T23:28:44.299Z,80.11
2022-10-09T23:31:52.765Z,80.14
2022-10-09T23:34:55.305Z,79.71
2022-10-09T23:37:57.484Z,79.60
2022-10-09T23:41:02.588Z,79.47
2022-10-09T23:44:05.437Z,79.97
2022-10-09T23:47:09.340Z,79.81
2022-10-09T23:50:11.820Z,80.11
2022-10-09T23:53:14.216Z,79.91
2022-10-09T23:56:23.782Z,80.23
2022-10-09T23:59:25.690Z,80.18
